Time;durP1;ratioP1;P1;durP2;ratioP2;P2;SDS_P1;SDS_P2;PMS_P1;PMS_P2;Temp;Humidity;BMP_temperature;BMP_pressure;BME280_temperature;BME280_humidity;BME280_pressure;Samples;Min_cycle;Max_cycle;Signal;HPM_P1;HPM_P2
2023/01/23 00:02:19;;;;;;;51.35;25.95;;;6.10;99.90;;;;;;5069924;28;20049;-50
2023/01/23 00:04:45;;;;;;;58.33;27.52;;;6.20;99.90;;;;;;5055116;28;20152;-51
2023/01/23 00:07:11;;;;;;;60.72;29.23;;;6.20;99.90;;;;;;5055221;28;20105;-50
2023/01/23 00:09:36;;;;;;;51.40;25.83;;;6.30;99.90;;;;;;5055214;28;20100;-50
2023/01/23 00:12:04;;;;;;;63.22;26.95;;;6.50;99.90;;;;;;5069247;28;20123;-49
2023/01/23 00:14:29;;;;;;;38.65;25.23;;;6.40;99.90;;;;;;5019110;28;20036;-50
2023/01/23 00:16:55;;;;;;;44.55;23.70;;;;;;;;;;5069382;28;20037;-49
2023/01/23 00:19:21;;;;;;;55.72;23.70;;;6.40;99.90;;;;;;5055304;28;20403;-51
2023/01/23 00:21:47;;;;;;;41.92;24.25;;;6.30;99.90;;;;;;5069463;28;20166;-49
2023/01/23 00:24:13;;;;;;;51.80;22.63;;;6.30;99.90;;;;;;5054298;28;20114;-50
2023/01/23 00:26:39;;;;;;;66.55;25.00;;;6.40;99.90;;;;;;5067551;28;20072;-49
2023/01/23 00:29:05;;;;;;;67.10;26.33;;;6.50;99.90;;;;;;5054919;28;20029;-49
2023/01/23 00:31:36;;;;;;;78.47;25.38;;;6.60;99.90;;;;;;5057216;28;20057;-49
2023/01/23 00:34:05;;;;;;;74.95;31.08;;;6.70;99.90;;;;;;5074733;28;20028;-49
2023/01/23 00:36:39;;;;;;;69.18;23.70;;;6.60;99.90;;;;;;5075030;28;20412;-50
2023/01/23 00:39:17;;;;;;;89.72;25.17;;;6.70;99.90;;;;;;5056061;28;20419;-49
2023/01/23 00:41:47;;;;;;;81.35;22.38;;;6.60;99.90;;;;;;5055726;28;20087;-51
2023/01/23 00:44:13;;;;;;;83.13;22.77;;;6.70;99.90;;;;;;5074959;28;20464;-50
2023/01/23 00:46:39;;;;;;;101.10;37.08;;;6.70;99.90;;;;;;5074238;28;20039;-51
2023/01/23 00:49:05;;;;;;;76.05;25.27;;;6.70;99.90;;;;;;5074470;28;20024;-50
2023/01/23 00:51:31;;;;;;;77.95;20.42;;;6.70;99.90;;;;;;5038825;28;20040;-49
2023/01/23 00:53:57;;;;;;;60.72;22.20;;;6.70;99.90;;;;;;5074288;28;20033;-49
2023/01/23 00:56:23;;;;;;;94.57;22.83;;;6.80;99.90;;;;;;5022664;28;20085;-50
2023/01/23 00:58:49;;;;;;;111.50;24.33;;;6.80;99.90;;;;;;5055622;28;20392;-50
2023/01/23 01:01:15;;;;;;;82.95;23.58;;;6.70;99.90;;;;;;5055678;28;20075;-50
2023/01/23 01:03:42;;;;;;;95.07;24.02;;;6.80;99.90;;;;;;5074133;28;20032;-50
2023/01/23 01:06:09;;;;;;;131.93;39.80;;;6.90;99.90;;;;;;5074064;28;20495;-50
2023/01/23 01:08:34;;;;;;;93.30;35.47;;;6.80;99.90;;;;;;5074154;28;20025;-51
2023/01/23 01:11:00;;;;;;;98.60;41.15;;;6.90;99.90;;;;;;5072014;28;20040;-50
2023/01/23 01:13:26;;;;;;;101.25;25.08;;;6.80;99.90;;;;;;5074029;28;20479;-49
2023/01/23 01:15:53;;;;;;;64.57;20.75;;;6.80;99.90;;;;;;5073789;28;20111;-49
2023/01/23 01:18:20;;;;;;;56.45;18.75;;;6.80;99.90;;;;;;5074057;28;20078;-50
2023/01/23 01:20:47;;;;;;;67.25;20.05;;;6.80;99.90;;;;;;5069063;28;20086;-48
2023/01/23 01:23:13;;;;;;;53.85;21.08;;;6.80;99.90;;;;;;5073986;28;20441;-51
2023/01/23 01:25:39;;;;;;;68.47;21.67;;;6.80;99.90;;;;;;5073950;28;20140;-50
2023/01/23 01:28:06;;;;;;;55.58;24.73;;;6.80;99.90;;;;;;5088831;28;20499;-49
2023/01/23 01:30:32;;;;;;;96.35;47.65;;;6.60;99.90;;;;;;5073535;28;20025;-50
2023/01/23 01:32:57;;;;;;;48.97;29.88;;;6.70;99.90;;;;;;5073503;28;20547;-51
2023/01/23 01:35:24;;;;;;;63.88;24.75;;;6.80;99.90;;;;;;5073381;28;20074;-49
2023/01/23 01:37:50;;;;;;;50.70;21.15;;;6.70;99.90;;;;;;5054836;28;20403;-51
2023/01/23 01:40:21;;;;;;;47.35;23.23;;;6.90;99.90;;;;;;5073705;28;20110;-49
2023/01/23 01:43:00;;;;;;;51.75;21.95;;;6.80;99.90;;;;;;5073705;28;20033;-49
2023/01/23 01:46:01;;;;;;;65.63;21.08;;;6.60;99.90;;;;;;5073323;28;20082;-51
2023/01/23 01:48:50;;;;;;;60.20;26.10;;;6.10;99.90;;;;;;5073755;28;20034;-48
2023/01/23 01:51:37;;;;;;;97.97;31.50;;;6.00;99.90;;;;;;5075474;28;20039;-51
2023/01/23 01:54:21;;;;;;;102.03;30.25;;;6.20;99.90;;;;;;5077501;28;20029;-58
2023/01/23 01:57:08;;;;;;;58.33;22.75;;;6.40;99.90;;;;;;5076781;28;20031;-53
2023/01/23 01:59:42;;;;;;;66.38;21.50;;;5.80;99.90;;;;;;5077110;28;20461;-50
2023/01/23 02:02:14;;;;;;;41.60;18.50;;;5.50;99.90;;;;;;5076851;28;20036;-50
2023/01/23 02:04:46;;;;;;;56.47;20.23;;;5.20;99.90;;;;;;5073714;28;20415;-49
2023/01/23 02:07:22;;;;;;;57.60;21.35;;;5.20;99.90;;;;;;5073394;28;20028;-51
2023/01/23 02:09:49;;;;;;;44.50;21.15;;;5.00;99.90;;;;;;5072824;28;20078;-49
2023/01/23 02:12:14;;;;;;;70.93;23.27;;;5.20;99.90;;;;;;5071213;28;20085;-51
2023/01/23 02:14:40;;;;;;;56.13;20.52;;;5.30;99.90;;;;;;5073161;28;20115;-51
2023/01/23 02:17:06;;;;;;;41.70;20.70;;;5.30;99.90;;;;;;5072824;28;20038;-50
2023/01/23 02:19:44;;;;;;;46.97;23.15;;;5.50;99.90;;;;;;5054114;28;20032;-49
2023/01/23 02:22:31;;;;;;;47.08;25.40;;;5.50;99.90;;;;;;5054365;28;20041;-50
2023/01/23 02:25:20;;;;;;;49.63;21.75;;;5.60;99.90;;;;;;5062343;28;20036;-49
2023/01/23 02:27:46;;;;;;;50.85;25.80;;;5.40;99.90;;;;;;5072755;28;20552;-49
2023/01/23 02:30:12;;;;;;;44.88;19.42;;;5.60;99.90;;;;;;5073082;28;20025;-51
2023/01/23 02:32:38;;;;;;;49.28;22.02;;;5.50;99.90;;;;;;5053338;28;20170;-49
2023/01/23 02:35:25;;;;;;;58.30;25.05;;;5.50;99.90;;;;;;5072832;28;20111;-50
2023/01/23 02:37:53;;;;;;;68.10;30.45;;;5.60;99.90;;;;;;5072857;28;20381;-51
2023/01/23 02:40:28;;;;;;;81.93;24.98;;;5.60;99.90;;;;;;5072771;28;20380;-50
2023/01/23 02:42:54;;;;;;;62.42;22.35;;;5.70;99.90;;;;;;5072668;28;20047;-51
2023/01/23 02:45:20;;;;;;;74.55;23.63;;;5.70;99.90;;;;;;5072938;28;20036;-51
2023/01/23 02:47:46;;;;;;;62.95;23.45;;;5.70;99.90;;;;;;5072564;28;20476;-50
2023/01/23 02:50:11;;;;;;;60.72;23.77;;;5.60;99.90;;;;;;5072713;28;20024;-51
2023/01/23 02:52:37;;;;;;;63.63;24.35;;;5.70;99.90;;;;;;5072570;28;20505;-50
2023/01/23 02:55:03;;;;;;;60.75;25.30;;;5.80;99.90;;;;;;5070679;28;20037;-51
2023/01/23 02:57:29;;;;;;;60.97;26.17;;;6.00;99.90;;;;;;5037096;28;20044;-49
2023/01/23 03:02:38;;;;;;;80.60;26.50;;;6.00;99.90;;;;;;5072674;28;20044;-50
2023/01/23 03:05:05;;;;;;;62.05;24.48;;;6.00;99.90;;;;;;5074926;28;20021;-51
2023/01/23 03:07:30;;;;;;;52.05;24.95;;;6.10;99.90;;;;;;5076114;28;20103;-49
2023/01/23 03:09:56;;;;;;;83.25;22.90;;;6.10;99.90;;;;;;5076759;28;20058;-50
2023/01/23 03:12:22;;;;;;;64.53;23.48;;;5.70;99.90;;;;;;5076592;28;20024;-50
2023/01/23 03:14:52;;;;;;;126.00;25.23;;;5.70;99.90;;;;;;5057641;28;20044;-50
2023/01/23 03:17:18;;;;;;;131.50;24.33;;;5.50;99.90;;;;;;5076073;28;20036;-49
2023/01/23 03:19:44;;;;;;;83.80;24.67;;;5.20;99.90;;;;;;5076177;28;20059;-49
2023/01/23 03:22:10;;;;;;;111.07;26.23;;;5.40;99.90;;;;;;5073959;28;20072;-49
2023/01/23 03:24:35;;;;;;;103.45;24.45;;;5.30;99.90;;;;;;5075818;28;20028;-50
2023/01/23 03:27:01;;;;;;;111.28;28.92;;;5.20;99.90;;;;;;5075914;28;20024;-49
2023/01/23 03:32:12;;;;;;;100.40;28.25;;;5.00;99.90;;;;;;5075607;28;20117;-49
2023/01/23 03:34:38;;;;;;;126.30;28.67;;;4.80;99.90;;;;;;5073982;28;20571;-49
2023/01/23 03:37:06;;;;;;;123.68;28.40;;;4.90;99.90;;;;;;5076044;28;20100;-50
2023/01/23 03:42:17;;;;;;;109.55;25.35;;;5.10;99.90;;;;;;5075693;28;20046;-50
2023/01/23 03:44:43;;;;;;;114.18;28.95;;;5.20;99.90;;;;;;5075978;28;20417;-50
2023/01/23 03:47:09;;;;;;;95.03;28.17;;;5.30;99.90;;;;;;5073637;28;20115;-50
2023/01/23 03:49:35;;;;;;;107.43;29.33;;;5.20;99.90;;;;;;5075694;28;20029;-50
2023/01/23 03:52:01;;;;;;;91.53;28.77;;;5.30;99.90;;;;;;5073845;28;20040;-49
2023/01/23 03:54:27;;;;;;;90.80;28.55;;;5.40;99.90;;;;;;5075439;28;20430;-50
2023/01/23 03:56:54;;;;;;;158.82;31.52;;;5.40;99.90;;;;;;5075621;28;20025;-49
2023/01/23 03:59:19;;;;;;;98.80;27.45;;;5.50;99.90;;;;;;5073687;28;20161;-50
2023/01/23 04:01:46;;;;;;;112.68;28.10;;;5.40;99.90;;;;;;5056696;28;20486;-51
2023/01/23 04:04:12;;;;;;;85.22;29.80;;;5.50;99.90;;;;;;5073481;28;20119;-49
2023/01/23 04:06:38;;;;;;;98.95;26.00;;;5.40;99.90;;;;;;5075343;28;20109;-51
2023/01/23 04:09:04;;;;;;;86.90;26.13;;;5.30;99.90;;;;;;5056893;28;20075;-50
2023/01/23 04:11:30;;;;;;;108.03;29.30;;;5.40;99.90;;;;;;5075442;28;20074;-49
2023/01/23 04:13:56;;;;;;;101.55;27.77;;;5.30;99.90;;;;;;5056812;28;20426;-50
2023/01/23 04:16:22;;;;;;;154.73;29.63;;;5.20;99.90;;;;;;5074691;28;20116;-51
2023/01/23 04:18:49;;;;;;;118.60;28.42;;;5.20;99.90;;;;;;5074003;28;20510;-51
2023/01/23 04:21:14;;;;;;;183.23;35.53;;;5.20;99.90;;;;;;5074959;28;20029;-51
2023/01/23 04:23:40;;;;;;;180.13;35.33;;;5.50;99.90;;;;;;5074770;28;20032;-48
2023/01/23 04:26:06;;;;;;;113.10;30.45;;;5.30;99.90;;;;;;5039745;28;20032;-51
2023/01/23 04:28:32;;;;;;;109.90;30.83;;;5.40;99.90;;;;;;5073301;28;20033;-49
2023/01/23 04:30:57;;;;;;;97.05;25.70;;;5.30;99.90;;;;;;5074877;28;20111;-50
2023/01/23 04:33:23;;;;;;;188.68;34.10;;;5.20;99.90;;;;;;5074581;28;20048;-51
2023/01/23 04:35:59;;;;;;;112.80;32.50;;;5.10;99.90;;;;;;5074909;28;20024;-50
2023/01/23 04:38:27;;;;;;;130.90;27.25;;;5.30;99.90;;;;;;5074858;28;20024;-49
2023/01/23 04:40:54;;;;;;;124.75;29.20;;;5.20;99.90;;;;;;5072861;28;20090;-49
2023/01/23 04:43:20;;;;;;;143.27;33.95;;;5.20;99.90;;;;;;5074641;28;20086;-51
2023/01/23 04:45:48;;;;;;;127.13;33.13;;;5.20;99.90;;;;;;5074507;28;20115;-50
2023/01/23 04:48:14;;;;;;;108.43;35.70;;;5.30;99.90;;;;;;5056347;28;20029;-49
2023/01/23 04:50:40;;;;;;;148.27;29.77;;;5.60;99.90;;;;;;5074162;28;20050;-50
2023/01/23 04:53:05;;;;;;;139.75;32.92;;;5.40;99.90;;;;;;5072772;28;20052;-49
2023/01/23 04:55:32;;;;;;;101.15;32.30;;;5.20;99.90;;;;;;5039459;28;20043;-49
2023/01/23 04:57:59;;;;;;;196.32;34.28;;;5.50;99.90;;;;;;5077840;28;20062;-50
2023/01/23 05:00:25;;;;;;;110.45;36.05;;;5.40;99.90;;;;;;5077285;28;20029;-51
2023/01/23 05:02:51;;;;;;;127.47;33.15;;;5.70;99.90;;;;;;5076561;28;20063;-50
2023/01/23 05:05:19;;;;;;;129.23;35.80;;;5.60;99.90;;;;;;5076423;28;20028;-51
2023/01/23 05:07:46;;;;;;;148.25;37.35;;;5.70;99.90;;;;;;5074698;28;20533;-50
2023/01/23 05:10:13;;;;;;;134.15;35.45;;;5.60;99.90;;;;;;5075301;28;20086;-50
2023/01/23 05:12:38;;;;;;;134.40;32.58;;;5.50;99.90;;;;;;5074654;28;20037;-51
2023/01/23 05:15:05;;;;;;;107.55;28.20;;;5.50;99.90;;;;;;5072241;28;20033;-51
2023/01/23 05:17:31;;;;;;;128.05;27.60;;;5.40;99.90;;;;;;5038673;28;20040;-50
2023/01/23 05:19:57;;;;;;;136.98;30.58;;;5.40;99.90;;;;;;5074093;28;20020;-51
2023/01/23 05:22:22;;;;;;;137.77;32.42;;;5.30;99.90;;;;;;5055376;28;20073;-51
2023/01/23 05:24:48;;;;;;;97.60;28.95;;;5.30;99.90;;;;;;5074070;28;20036;-49
2023/01/23 05:27:14;;;;;;;174.20;30.17;;;5.30;99.90;;;;;;5073115;28;20056;-51
2023/01/23 05:29:40;;;;;;;163.70;30.42;;;5.40;99.90;;;;;;5073669;28;20024;-51
2023/01/23 05:32:06;;;;;;;138.32;30.10;;;5.40;99.90;;;;;;5070745;28;20127;-50
2023/01/23 05:34:31;;;;;;;231.85;35.97;;;5.30;99.90;;;;;;5054388;28;20033;-52
2023/01/23 05:36:57;;;;;;;146.45;32.53;;;5.60;99.90;;;;;;5072470;28;20025;-50
2023/01/23 05:39:24;;;;;;;128.75;32.50;;;5.40;99.90;;;;;;5073146;28;20021;-51
2023/01/23 05:41:49;;;;;;;174.68;34.38;;;5.70;99.90;;;;;;5070625;28;20052;-52
2023/01/23 05:44:15;;;;;;;125.88;31.08;;;5.70;99.90;;;;;;5071671;28;20032;-49
2023/01/23 05:46:41;;;;;;;140.90;31.38;;;5.80;99.90;;;;;;5070143;28;20025;-50
2023/01/23 05:49:07;;;;;;;138.65;31.27;;;5.70;99.90;;;;;;5079501;28;20455;-49
2023/01/23 05:51:32;;;;;;;114.10;30.58;;;5.70;99.90;;;;;;5074991;28;20056;-51
2023/01/23 05:53:59;;;;;;;146.93;31.52;;;5.60;99.90;;;;;;5053718;28;20031;-50
2023/01/23 05:56:25;;;;;;;111.25;29.90;;;5.70;99.90;;;;;;5053343;28;20461;-50
2023/01/23 05:58:51;;;;;;;124.15;29.90;;;5.60;99.90;;;;;;5053372;28;20025;-50
2023/01/23 06:01:18;;;;;;;122.32;32.25;;;5.50;99.90;;;;;;5059679;28;20024;-50
2023/01/23 06:03:44;;;;;;;143.77;34.10;;;5.40;99.90;;;;;;5070949;28;20044;-52
2023/01/23 06:06:10;;;;;;;120.53;31.48;;;5.40;99.90;;;;;;5044810;28;20124;-50
2023/01/23 06:08:35;;;;;;;190.40;31.38;;;5.30;99.90;;;;;;5051096;28;20041;-50
2023/01/23 06:11:01;;;;;;;182.57;32.92;;;5.50;99.90;;;;;;5066519;28;20056;-50
2023/01/23 06:13:27;;;;;;;168.65;30.83;;;5.50;99.90;;;;;;5070930;28;20025;-50
2023/01/23 06:15:53;;;;;;;148.75;26.73;;;5.50;99.90;;;;;;5053990;28;20049;-51
2023/01/23 06:18:19;;;;;;;210.15;31.10;;;5.50;99.90;;;;;;5054077;28;20068;-49
2023/01/23 06:20:45;;;;;;;146.13;26.13;;;5.30;99.90;;;;;;5070127;28;20056;-51
2023/01/23 06:23:12;;;;;;;105.78;25.08;;;5.10;99.90;;;;;;5053924;28;20502;-50
2023/01/23 06:25:38;;;;;;;130.07;31.63;;;5.00;99.90;;;;;;5070649;28;20127;-54
2023/01/23 06:28:03;;;;;;;158.32;38.42;;;5.00;99.90;;;;;;5070586;28;20487;-51
2023/01/23 06:30:29;;;;;;;154.20;34.15;;;5.10;99.90;;;;;;5063600;28;20111;-51
2023/01/23 06:32:55;;;;;;;114.53;28.85;;;5.20;99.90;;;;;;5068769;28;20056;-53
2023/01/23 06:35:21;;;;;;;153.15;29.95;;;5.40;99.90;;;;;;5069019;28;20123;-53
2023/01/23 06:37:47;;;;;;;195.93;29.15;;;5.40;99.90;;;;;;5063240;28;20037;-54
2023/01/23 06:40:13;;;;;;;147.73;28.38;;;5.60;99.90;;;;;;5055032;28;20392;-51
2023/01/23 06:42:40;;;;;;;107.63;27.27;;;5.50;99.90;;;;;;5054799;28;20033;-51
2023/01/23 06:45:07;;;;;;;140.98;28.92;;;5.60;99.90;;;;;;5069222;28;20021;-52
2023/01/23 06:47:33;;;;;;;70.43;24.88;;;;;;;;;;5058830;28;20154;-52
2023/01/23 06:50:00;;;;;;;126.53;27.17;;;6.00;99.90;;;;;;5074872;28;20044;-52
2023/01/23 06:52:27;;;;;;;146.40;23.95;;;6.00;99.90;;;;;;5058526;28;20044;-53
2023/01/23 06:54:53;;;;;;;114.45;25.60;;;5.90;99.90;;;;;;5076356;28;20475;-51
2023/01/23 06:57:19;;;;;;;131.77;28.05;;;5.80;99.90;;;;;;5076717;28;20035;-52
2023/01/23 06:59:45;;;;;;;152.23;27.83;;;5.90;99.90;;;;;;5076869;28;20107;-52
2023/01/23 07:02:11;;;;;;;80.95;27.63;;;5.90;99.90;;;;;;5076422;28;20140;-51
2023/01/23 07:04:37;;;;;;;66.90;28.73;;;6.00;99.90;;;;;;5076784;28;20050;-52
2023/01/23 07:07:03;;;;;;;104.47;29.75;;;6.10;99.90;;;;;;5058120;28;20543;-52
2023/01/23 07:09:28;;;;;;;140.15;26.98;;;6.00;99.90;;;;;;5076567;28;20033;-52
2023/01/23 07:11:54;;;;;;;161.20;30.40;;;5.90;99.90;;;;;;5076609;28;20017;-52
2023/01/23 07:14:20;;;;;;;123.18;29.48;;;5.90;99.90;;;;;;5074496;28;20119;-51
2023/01/23 07:16:46;;;;;;;133.10;29.73;;;6.00;99.90;;;;;;5076343;28;20028;-52
2023/01/23 07:19:12;;;;;;;89.28;28.88;;;6.00;99.90;;;;;;5076920;28;20115;-52
2023/01/23 07:21:38;;;;;;;144.07;29.55;;;5.90;99.90;;;;;;5057802;28;20114;-51
2023/01/23 07:24:04;;;;;;;101.40;29.08;;;5.90;99.90;;;;;;5057866;28;20472;-53
2023/01/23 07:26:30;;;;;;;134.35;32.40;;;5.90;99.90;;;;;;5057784;28;20037;-51
2023/01/23 07:28:56;;;;;;;71.13;31.33;;;6.00;99.90;;;;;;5057581;28;20028;-52
2023/01/23 07:31:21;;;;;;;82.57;37.17;;;6.30;99.90;;;;;;5076079;28;20094;-55
2023/01/23 07:33:47;;;;;;;83.13;38.83;;;6.40;99.90;;;;;;5076330;28;20535;-51
2023/01/23 07:36:13;;;;;;;93.55;39.65;;;6.50;99.90;;;;;;5076335;28;20028;-52
2023/01/23 07:38:39;;;;;;;78.30;39.10;;;6.50;99.90;;;;;;5057438;28;20044;-52
2023/01/23 07:41:05;;;;;;;78.03;37.38;;;6.70;99.90;;;;;;5075858;28;20032;-51
2023/01/23 07:43:31;;;;;;;70.32;37.50;;;6.90;99.90;;;;;;5075983;28;20033;-51
2023/01/23 07:46:00;;;;;;;79.70;43.42;;;7.00;99.90;;;;;;5075811;28;20035;-51
2023/01/23 07:48:27;;;;;;;69.63;37.75;;;7.00;99.90;;;;;;5075893;28;20028;-53
2023/01/23 07:50:53;;;;;;;59.42;32.20;;;7.00;99.90;;;;;;5075019;28;20038;-51
2023/01/23 07:53:19;;;;;;;62.15;37.03;;;6.80;99.90;;;;;;5076065;28;20100;-53
2023/01/23 07:55:44;;;;;;;77.93;42.80;;;6.80;99.90;;;;;;5057155;28;20044;-51
2023/01/23 07:58:10;;;;;;;52.58;33.45;;;6.70;99.90;;;;;;5057323;28;20037;-52
2023/01/23 08:00:36;;;;;;;52.53;32.55;;;6.90;99.90;;;;;;5075855;28;20030;-52
2023/01/23 08:03:01;;;;;;;50.05;30.48;;;6.80;99.90;;;;;;5075202;28;20119;-52
2023/01/23 08:05:27;;;;;;;49.38;27.85;;;6.90;99.90;;;;;;5040014;28;20062;-51
2023/01/23 08:07:53;;;;;;;51.35;29.88;;;6.80;99.90;;;;;;5071733;28;20029;-51
2023/01/23 08:10:19;;;;;;;56.65;33.15;;;6.80;99.90;;;;;;5061358;28;20037;-52
2023/01/23 08:12:44;;;;;;;54.42;32.97;;;6.70;99.90;;;;;;5073153;28;20072;-51
2023/01/23 08:15:10;;;;;;;51.38;32.35;;;6.70;99.90;;;;;;5074107;28;20024;-51
2023/01/23 08:17:36;;;;;;;64.28;41.22;;;6.60;99.90;;;;;;5073297;28;20423;-51
2023/01/23 08:20:03;;;;;;;55.58;31.92;;;6.80;99.90;;;;;;5073301;28;20040;-52
2023/01/23 08:22:29;;;;;;;47.13;27.67;;;6.90;99.90;;;;;;5074690;28;20115;-51
2023/01/23 08:24:54;;;;;;;37.38;23.30;;;6.70;99.90;;;;;;5056618;28;20120;-50
2023/01/23 08:27:20;;;;;;;31.23;21.23;;;6.70;99.90;;;;;;5075021;28;20048;-48
2023/01/23 08:29:46;;;;;;;32.15;19.23;;;6.70;99.90;;;;;;5074506;28;20029;-49
2023/01/23 08:32:12;;;;;;;33.05;22.58;;;6.80;99.90;;;;;;5055109;28;20044;-54
2023/01/23 08:34:38;;;;;;;38.03;23.92;;;6.80;99.90;;;;;;5070478;28;20074;-49
2023/01/23 08:37:03;;;;;;;37.50;23.40;;;6.90;99.90;;;;;;5056004;28;20028;-48
2023/01/23 08:39:30;;;;;;;36.85;23.15;;;6.90;99.90;;;;;;5074893;28;20445;-49
2023/01/23 08:41:55;;;;;;;39.00;23.77;;;6.90;99.90;;;;;;5074786;28;20040;-49
2023/01/23 08:44:22;;;;;;;35.28;21.92;;;6.90;99.90;;;;;;5072852;28;20040;-48
2023/01/23 08:46:48;;;;;;;37.10;21.45;;;7.00;99.90;;;;;;5074516;28;20400;-50
2023/01/23 08:49:13;;;;;;;36.50;21.63;;;7.00;99.90;;;;;;5075035;28;20035;-49
2023/01/23 08:51:39;;;;;;;34.20;22.40;;;7.00;99.90;;;;;;5039226;28;20444;-49
2023/01/23 08:54:05;;;;;;;34.58;20.67;;;7.10;99.90;;;;;;5074509;28;20415;-47
2023/01/23 08:56:31;;;;;;;35.55;21.33;;;7.10;99.90;;;;;;5072408;28;20093;-48
2023/01/23 08:58:56;;;;;;;30.77;18.30;;;7.20;99.90;;;;;;5072620;28;20036;-47
2023/01/23 09:01:25;;;;;;;28.85;18.38;;;7.20;99.90;;;;;;5073660;28;20024;-47
2023/01/23 09:03:51;;;;;;;27.08;17.55;;;7.20;99.90;;;;;;5073921;28;20028;-48
2023/01/23 09:06:19;;;;;;;27.52;15.98;;;7.30;99.90;;;;;;5074456;28;20024;-49
2023/01/23 09:08:45;;;;;;;27.67;17.98;;;7.30;99.90;;;;;;5072398;28;20040;-48
2023/01/23 09:11:12;;;;;;;24.30;14.63;;;7.40;99.90;;;;;;5074196;28;20021;-48
2023/01/23 09:13:38;;;;;;;25.80;17.27;;;7.20;99.90;;;;;;5073797;28;20055;-49
2023/01/23 09:16:05;;;;;;;24.55;17.60;;;7.20;99.90;;;;;;5074266;28;20510;-49
2023/01/23 09:18:31;;;;;;;25.08;16.23;;;7.40;99.90;;;;;;5038733;28;20389;-48
2023/01/23 09:20:56;;;;;;;21.83;14.00;;;7.40;99.90;;;;;;5074142;28;20025;-48
2023/01/23 09:23:23;;;;;;;21.10;13.68;;;7.40;99.90;;;;;;5055167;28;20041;-49
2023/01/23 09:25:49;;;;;;;24.92;14.30;;;7.40;99.90;;;;;;5073589;28;20033;-49
2023/01/23 09:28:14;;;;;;;21.80;14.25;;;7.50;99.90;;;;;;5073825;28;20067;-50
2023/01/23 09:30:41;;;;;;;21.13;13.02;;;7.60;99.90;;;;;;5071991;28;20063;-48
2023/01/23 09:33:06;;;;;;;22.08;13.63;;;7.70;99.90;;;;;;5073639;28;20060;-49
2023/01/23 09:35:33;;;;;;;21.85;13.50;;;7.70;99.90;;;;;;5071774;28;20043;-48
2023/01/23 09:37:59;;;;;;;21.50;14.25;;;7.70;99.90;;;;;;5073752;28;20387;-49
2023/01/23 09:40:31;;;;;;;21.60;14.65;;;7.70;99.90;;;;;;5073835;28;20025;-47
2023/01/23 09:43:22;;;;;;;;;;;7.70;99.90;;;;;;5074082;28;20032;-48
2023/01/23 09:46:37;;;;;;;19.13;13.20;;;7.80;99.90;;;;;;5065173;28;19908;-49
2023/01/23 09:49:11;;;;;;;21.98;13.93;;;7.80;99.90;;;;;;5012120;28;20045;-48
2023/01/23 09:51:37;;;;;;;18.48;12.27;;;7.80;99.90;;;;;;5011611;28;20069;-48
2023/01/23 09:54:24;;;;;;;23.13;14.73;;;7.80;99.90;;;;;;5011710;28;20054;-48
2023/01/23 09:56:51;;;;;;;22.30;14.25;;;7.90;99.90;;;;;;4995148;28;20121;-49
2023/01/23 09:59:30;;;;;;;26.10;15.82;;;8.00;99.90;;;;;;5011682;28;20038;-48
2023/01/23 10:01:56;;;;;;;25.40;17.55;;;8.00;99.90;;;;;;5011569;28;20504;-49
2023/01/23 10:04:22;;;;;;;23.63;15.93;;;8.10;99.90;;;;;;4995164;28;20037;-48
2023/01/23 10:07:09;;;;;;;25.08;16.52;;;;;;;;;;5011499;28;20101;-48
2023/01/23 10:09:41;;;;;;;24.15;16.85;;;;;;;;;;4994910;28;20113;-48
2023/01/23 10:12:49;;;;;;;24.83;16.70;;;8.60;99.90;;;;;;5011558;28;20062;-48
2023/01/23 10:15:43;;;;;;;24.65;17.05;;;8.60;99.90;;;;;;4972385;28;20038;-48
2023/01/23 10:18:27;;;;;;;18.90;13.23;;;8.50;99.90;;;;;;4972294;28;20086;-49
2023/01/23 10:21:14;;;;;;;17.15;10.82;;;8.60;99.90;;;;;;4972185;28;20046;-49
2023/01/23 10:23:59;;;;;;;22.20;15.80;;;8.60;99.90;;;;;;4979808;28;20127;-49
2023/01/23 10:26:31;;;;;;;24.10;16.27;;;8.70;99.90;;;;;;5050848;28;20554;-49
2023/01/23 10:29:05;;;;;;;22.17;15.95;;;8.80;99.90;;;;;;5001993;28;20044;-49
2023/01/23 10:31:41;;;;;;;19.90;14.95;;;8.90;99.90;;;;;;5030414;28;20452;-48
2023/01/23 10:34:33;;;;;;;21.88;14.38;;;9.20;99.90;;;;;;5014573;28;20050;-48
2023/01/23 10:36:59;;;;;;;17.38;12.80;;;9.20;99.90;;;;;;5030896;28;20073;-48
2023/01/23 10:39:30;;;;;;;20.98;14.95;;;9.40;99.90;;;;;;5030999;28;20077;-48
2023/01/23 10:41:56;;;;;;;16.88;11.88;;;9.50;99.90;;;;;;5030969;28;20183;-49
2023/01/23 10:44:21;;;;;;;22.08;13.88;;;9.40;99.90;;;;;;5030787;28;20524;-49
2023/01/23 10:46:49;;;;;;;16.98;11.40;;;9.50;99.90;;;;;;5030652;28;20025;-48
2023/01/23 10:49:29;;;;;;;12.15;9.25;;;9.60;99.90;;;;;;5014274;28;20044;-48
2023/01/23 10:51:54;;;;;;;12.70;9.25;;;9.60;99.90;;;;;;5041935;28;20037;-48
2023/01/23 10:54:25;;;;;;;11.25;7.65;;;9.70;99.90;;;;;;5050826;28;20060;-48
2023/01/23 10:56:57;;;;;;;12.60;9.63;;;9.70;99.90;;;;;;5052691;28;20492;-48
2023/01/23 10:59:54;;;;;;;12.73;9.00;;;9.70;99.90;;;;;;5052696;28;20033;-48
2023/01/23 11:02:25;;;;;;;11.65;7.93;;;9.70;99.90;;;;;;5052578;28;20277;-49
2023/01/23 11:04:51;;;;;;;11.30;6.85;;;9.70;99.90;;;;;;5052931;28;20499;-48
2023/01/23 11:07:18;;;;;;;10.82;7.13;;;9.70;99.90;;;;;;5050849;28;20112;-49
2023/01/23 11:09:52;;;;;;;12.25;8.18;;;9.80;99.90;;;;;;5052585;28;20024;-49
2023/01/23 11:12:26;;;;;;;12.70;9.38;;;9.90;99.90;;;;;;5050922;28;20109;-48
2023/01/23 11:15:20;;;;;;;10.30;6.72;;;9.80;99.90;;;;;;5052840;28;20032;-50
2023/01/23 11:17:47;;;;;;;13.82;8.70;;;9.80;99.90;;;;;;5033867;28;20194;-48
2023/01/23 11:20:25;;;;;;;11.57;7.70;;;9.90;99.90;;;;;;5052928;28;20350;-48
2023/01/23 11:23:05;;;;;;;11.70;6.60;;;9.90;99.90;;;;;;5052220;28;20083;-49
2023/01/23 11:25:36;;;;;;;9.73;6.38;;;10.00;99.90;;;;;;5051698;28;20124;-49
2023/01/23 11:28:25;;;;;;;11.17;6.30;;;9.90;99.90;;;;;;5056059;28;20029;-48
2023/01/23 11:31:15;;;;;;;11.75;6.05;;;;;;;;;;5055955;28;20036;-48
2023/01/23 11:34:02;;;;;;;7.30;5.10;;;10.00;99.90;;;;;;5033859;28;20103;-49
2023/01/23 11:36:46;;;;;;;7.65;5.03;;;10.00;99.90;;;;;;5033952;28;20033;-49
2023/01/23 11:39:28;;;;;;;2.88;2.08;;;10.00;99.90;;;;;;5034180;28;20090;-49
2023/01/23 11:41:54;;;;;;;4.65;3.00;;;9.90;99.90;;;;;;5050755;28;20136;-48
2023/01/23 11:44:21;;;;;;;14.23;8.30;;;9.90;99.90;;;;;;5000999;28;20552;-49
2023/01/23 11:47:14;;;;;;;6.60;4.20;;;10.00;99.90;;;;;;5033454;28;20563;-48
2023/01/23 11:49:49;;;;;;;7.65;4.20;;;10.00;99.90;;;;;;5015628;28;20048;-48
2023/01/23 11:52:33;;;;;;;19.13;9.82;;;10.10;99.90;;;;;;5033573;28;20037;-48
2023/01/23 11:55:39;;;;;;;16.65;10.60;;;10.20;99.90;;;;;;5033303;28;20041;-49
2023/01/23 11:58:26;;;;;;;18.70;10.70;;;10.20;99.90;;;;;;5032023;28;20037;-47
2023/01/23 12:01:19;;;;;;;5.68;3.30;;;10.20;99.90;;;;;;5028470;28;20491;-48
2023/01/23 12:04:03;;;;;;;5.03;3.67;;;10.10;99.90;;;;;;5033033;28;20100;-49
2023/01/23 12:06:36;;;;;;;6.03;4.00;;;10.10;99.90;;;;;;5031969;28;20056;-49
2023/01/23 12:09:16;;;;;;;7.35;5.28;;;10.20;99.90;;;;;;5032628;28;20132;-51
2023/01/23 12:11:47;;;;;;;8.98;5.68;;;10.30;99.90;;;;;;5047891;28;20045;-47
2023/01/23 12:14:23;;;;;;;4.85;3.38;;;10.20;99.90;;;;;;5052185;28;20044;-48
2023/01/23 12:17:07;;;;;;;4.93;3.67;;;10.40;99.90;;;;;;5055010;28;20037;-49
2023/01/23 12:19:48;;;;;;;5.88;3.65;;;10.30;99.90;;;;;;5055403;28;20040;-50
2023/01/23 12:23:01;;;;;;;5.95;4.03;;;10.20;99.90;;;;;;5055177;28;20479;-48
2023/01/23 12:25:39;;;;;;;;;;;10.30;99.90;;;;;;5037005;28;20473;-49
2023/01/23 12:28:16;;;;;;;5.43;3.80;;;10.30;99.90;;;;;;5020564;28;20384;-50
2023/01/23 12:30:47;;;;;;;8.35;5.50;;;;;;;;;;5034675;28;20408;-49
2023/01/23 12:33:26;;;;;;;10.25;7.07;;;10.40;99.90;;;;;;5019819;28;20045;-48
2023/01/23 12:36:28;;;;;;;5.88;4.30;;;10.50;99.90;;;;;;5025081;28;20095;-47
2023/01/23 12:39:05;;;;;;;12.38;6.85;;;10.20;99.90;;;;;;4996719;28;20076;-49
2023/01/23 12:41:44;;;;;;;6.72;4.35;;;10.20;99.90;;;;;;5012892;28;20038;-49
2023/01/23 12:44:19;;;;;;;9.73;7.28;;;10.10;99.90;;;;;;5012948;28;20141;-50
2023/01/23 12:46:53;;;;;;;20.98;13.90;;;10.00;99.90;;;;;;5012917;28;20030;-49
2023/01/23 12:49:27;;;;;;;18.15;12.40;;;10.10;99.90;;;;;;5012802;28;20076;-49
2023/01/23 12:52:04;;;;;;;19.23;10.40;;;10.10;99.90;;;;;;5012859;28;20030;-50
2023/01/23 12:55:02;;;;;;;6.57;4.47;;;10.30;99.90;;;;;;5012782;28;20026;-49
2023/01/23 12:57:40;;;;;;;6.10;3.47;;;10.20;99.90;;;;;;5034709;28;20040;-49
2023/01/23 13:00:33;;;;;;;7.03;5.65;;;10.10;99.90;;;;;;5032674;28;20124;-48
2023/01/23 13:03:08;;;;;;;4.63;3.03;;;10.20;99.90;;;;;;5034468;28;20194;-48